sensor_id;sensor_type;location;lat;lon;timestamp;P1;durP1;ratioP1;P2;durP2;ratioP2
73296;SDS011;61524;50.938;11.396;2024-03-02T00:01:07;15.48;;;7.40;;
73296;SDS011;61524;50.938;11.396;2024-03-02T00:03:36;16.60;;;7.65;;
73296;SDS011;61524;50.938;11.396;2024-03-02T00:06:02;15.85;;;8.18;;
73296;SDS011;61524;50.938;11.396;2024-03-02T00:08:28;13.52;;;7.35;;
73296;SDS011;61524;50.938;11.396;2024-03-02T00:10:58;14.55;;;6.60;;
73296;SDS011;61524;50.938;11.396;2024-03-02T00:13:25;16.33;;;6.65;;
73296;SDS011;61524;50.938;11.396;2024-03-02T00:15:54;14.48;;;6.50;;
73296;SDS011;61524;50.938;11.396;2024-03-02T00:18:24;12.80;;;6.72;;
73296;SDS011;61524;50.938;11.396;2024-03-02T00:20:57;11.82;;;7.13;;
73296;SDS011;61524;50.938;11.396;2024-03-02T00:23:24;17.45;;;7.68;;
73296;SDS011;61524;50.938;11.396;2024-03-02T00:25:53;13.23;;;6.80;;
73296;SDS011;61524;50.938;11.396;2024-03-02T00:31:08;13.88;;;6.28;;
73296;SDS011;61524;50.938;11.396;2024-03-02T00:33:42;14.52;;;6.82;;
73296;SDS011;61524;50.938;11.396;2024-03-02T00:36:09;16.48;;;7.38;;
73296;SDS011;61524;50.938;11.396;2024-03-02T00:38:55;12.05;;;6.90;;
73296;SDS011;61524;50.938;11.396;2024-03-02T00:46:37;13.85;;;6.45;;
73296;SDS011;61524;50.938;11.396;2024-03-02T00:49:22;14.00;;;7.25;;
73296;SDS011;61524;50.938;11.396;2024-03-02T00:51:49;13.30;;;7.30;;
73296;SDS011;61524;50.938;11.396;2024-03-02T00:54:26;14.43;;;6.20;;
73296;SDS011;61524;50.938;11.396;2024-03-02T00:56:53;18.95;;;8.15;;
73296;SDS011;61524;50.938;11.396;2024-03-02T00:59:20;13.75;;;6.78;;
73296;SDS011;61524;50.938;11.396;2024-03-02T01:01:47;13.90;;;7.38;;
73296;SDS011;61524;50.938;11.396;2024-03-02T01:04:14;15.98;;;8.23;;
73296;SDS011;61524;50.938;11.396;2024-03-02T01:06:39;16.45;;;7.70;;
73296;SDS011;61524;50.938;11.396;2024-03-02T01:09:05;15.68;;;7.28;;
73296;SDS011;61524;50.938;11.396;2024-03-02T01:11:30;12.38;;;6.45;;
73296;SDS011;61524;50.938;11.396;2024-03-02T01:13:56;13.43;;;7.00;;
73296;SDS011;61524;50.938;11.396;2024-03-02T01:16:21;13.60;;;6.97;;
73296;SDS011;61524;50.938;11.396;2024-03-02T01:18:47;11.35;;;6.78;;
73296;SDS011;61524;50.938;11.396;2024-03-02T01:21:13;12.23;;;6.53;;
73296;SDS011;61524;50.938;11.396;2024-03-02T01:23:38;13.18;;;6.78;;
73296;SDS011;61524;50.938;11.396;2024-03-02T01:26:04;14.82;;;7.43;;
73296;SDS011;61524;50.938;11.396;2024-03-02T01:28:29;13.70;;;7.57;;
73296;SDS011;61524;50.938;11.396;2024-03-02T01:30:55;13.15;;;6.32;;
73296;SDS011;61524;50.938;11.396;2024-03-02T01:33:20;14.75;;;7.55;;
73296;SDS011;61524;50.938;11.396;2024-03-02T01:35:46;15.60;;;6.93;;
73296;SDS011;61524;50.938;11.396;2024-03-02T01:38:12;13.02;;;6.90;;
73296;SDS011;61524;50.938;11.396;2024-03-02T01:40:38;14.73;;;6.65;;
73296;SDS011;61524;50.938;11.396;2024-03-02T01:43:04;15.07;;;7.93;;
73296;SDS011;61524;50.938;11.396;2024-03-02T01:45:30;14.38;;;6.65;;
73296;SDS011;61524;50.938;11.396;2024-03-02T01:47:56;13.30;;;7.38;;
73296;SDS011;61524;50.938;11.396;2024-03-02T01:50:28;15.00;;;7.25;;
73296;SDS011;61524;50.938;11.396;2024-03-02T01:52:57;13.52;;;6.03;;
73296;SDS011;61524;50.938;11.396;2024-03-02T01:55:23;13.60;;;6.25;;
73296;SDS011;61524;50.938;11.396;2024-03-02T01:57:49;12.90;;;5.82;;
73296;SDS011;61524;50.938;11.396;2024-03-02T02:00:19;11.93;;;7.00;;
73296;SDS011;61524;50.938;11.396;2024-03-02T02:02:45;13.05;;;6.63;;
73296;SDS011;61524;50.938;11.396;2024-03-02T02:05:12;13.50;;;6.43;;
73296;SDS011;61524;50.938;11.396;2024-03-02T02:07:39;13.45;;;6.47;;
73296;SDS011;61524;50.938;11.396;2024-03-02T02:10:05;13.40;;;7.43;;
73296;SDS011;61524;50.938;11.396;2024-03-02T02:12:31;17.25;;;8.00;;
73296;SDS011;61524;50.938;11.396;2024-03-02T02:14:57;14.77;;;7.13;;
73296;SDS011;61524;50.938;11.396;2024-03-02T02:17:22;11.95;;;7.20;;
73296;SDS011;61524;50.938;11.396;2024-03-02T02:19:48;14.52;;;6.82;;
73296;SDS011;61524;50.938;11.396;2024-03-02T02:22:13;12.50;;;5.50;;
73296;SDS011;61524;50.938;11.396;2024-03-02T02:24:42;13.25;;;7.60;;
73296;SDS011;61524;50.938;11.396;2024-03-02T02:27:07;13.25;;;7.85;;
73296;SDS011;61524;50.938;11.396;2024-03-02T02:29:33;14.52;;;6.55;;
73296;SDS011;61524;50.938;11.396;2024-03-02T02:31:59;13.00;;;6.25;;
73296;SDS011;61524;50.938;11.396;2024-03-02T02:34:24;13.25;;;7.53;;
73296;SDS011;61524;50.938;11.396;2024-03-02T02:36:50;15.90;;;7.05;;
73296;SDS011;61524;50.938;11.396;2024-03-02T02:39:16;16.88;;;7.60;;
73296;SDS011;61524;50.938;11.396;2024-03-02T02:41:44;14.55;;;7.90;;
73296;SDS011;61524;50.938;11.396;2024-03-02T02:44:10;12.20;;;6.47;;
73296;SDS011;61524;50.938;11.396;2024-03-02T02:46:39;16.98;;;7.93;;
73296;SDS011;61524;50.938;11.396;2024-03-02T02:49:05;14.90;;;7.85;;
73296;SDS011;61524;50.938;11.396;2024-03-02T02:51:30;19.27;;;8.15;;
73296;SDS011;61524;50.938;11.396;2024-03-02T02:53:56;17.30;;;7.30;;
73296;SDS011;61524;50.938;11.396;2024-03-02T02:56:21;15.68;;;8.18;;
73296;SDS011;61524;50.938;11.396;2024-03-02T02:58:47;15.50;;;7.57;;
73296;SDS011;61524;50.938;11.396;2024-03-02T03:01:12;15.68;;;7.45;;
73296;SDS011;61524;50.938;11.396;2024-03-02T03:03:38;15.20;;;7.47;;
73296;SDS011;61524;50.938;11.396;2024-03-02T03:06:04;14.93;;;6.53;;
73296;SDS011;61524;50.938;11.396;2024-03-02T03:08:29;16.88;;;8.43;;
73296;SDS011;61524;50.938;11.396;2024-03-02T03:10:54;13.43;;;7.38;;
73296;SDS011;61524;50.938;11.396;2024-03-02T03:13:20;15.93;;;7.50;;
73296;SDS011;61524;50.938;11.396;2024-03-02T03:15:45;13.52;;;7.85;;
73296;SDS011;61524;50.938;11.396;2024-03-02T03:18:11;14.45;;;8.15;;
73296;SDS011;61524;50.938;11.396;2024-03-02T03:20:36;15.40;;;7.72;;
73296;SDS011;61524;50.938;11.396;2024-03-02T03:23:02;11.75;;;6.93;;
73296;SDS011;61524;50.938;11.396;2024-03-02T03:25:29;18.45;;;8.43;;
73296;SDS011;61524;50.938;11.396;2024-03-02T03:27:54;16.02;;;8.82;;
73296;SDS011;61524;50.938;11.396;2024-03-02T03:30:20;15.68;;;7.75;;
73296;SDS011;61524;50.938;11.396;2024-03-02T03:32:45;15.15;;;8.98;;
73296;SDS011;61524;50.938;11.396;2024-03-02T03:35:13;14.15;;;7.30;;
73296;SDS011;61524;50.938;11.396;2024-03-02T03:37:40;15.25;;;8.57;;
73296;SDS011;61524;50.938;11.396;2024-03-02T03:40:05;13.90;;;7.72;;
73296;SDS011;61524;50.938;11.396;2024-03-02T03:42:35;18.33;;;8.35;;
73296;SDS011;61524;50.938;11.396;2024-03-02T03:45:03;19.58;;;9.05;;
73296;SDS011;61524;50.938;11.396;2024-03-02T03:47:31;15.50;;;7.32;;
73296;SDS011;61524;50.938;11.396;2024-03-02T03:49:56;16.65;;;8.65;;
73296;SDS011;61524;50.938;11.396;2024-03-02T03:52:22;13.15;;;7.25;;
73296;SDS011;61524;50.938;11.396;2024-03-02T03:54:48;14.63;;;7.13;;
73296;SDS011;61524;50.938;11.396;2024-03-02T03:57:13;16.92;;;9.38;;
73296;SDS011;61524;50.938;11.396;2024-03-02T03:59:39;14.73;;;7.55;;
73296;SDS011;61524;50.938;11.396;2024-03-02T04:02:04;19.48;;;8.18;;
73296;SDS011;61524;50.938;11.396;2024-03-02T04:04:30;17.27;;;8.25;;
73296;SDS011;61524;50.938;11.396;2024-03-02T04:06:55;14.40;;;7.72;;
73296;SDS011;61524;50.938;11.396;2024-03-02T04:09:21;17.05;;;8.23;;
73296;SDS011;61524;50.938;11.396;2024-03-02T04:11:46;16.45;;;7.07;;
73296;SDS011;61524;50.938;11.396;2024-03-02T04:14:11;16.20;;;8.65;;
73296;SDS011;61524;50.938;11.396;2024-03-02T04:16:37;16.02;;;7.93;;
73296;SDS011;61524;50.938;11.396;2024-03-02T04:19:04;15.40;;;9.35;;
73296;SDS011;61524;50.938;11.396;2024-03-02T04:21:29;16.63;;;8.82;;
73296;SDS011;61524;50.938;11.396;2024-03-02T04:23:55;24.48;;;10.70;;
73296;SDS011;61524;50.938;11.396;2024-03-02T04:26:24;25.60;;;12.02;;
73296;SDS011;61524;50.938;11.396;2024-03-02T04:28:53;19.17;;;11.60;;
73296;SDS011;61524;50.938;11.396;2024-03-02T04:31:19;21.85;;;9.38;;
73296;SDS011;61524;50.938;11.396;2024-03-02T04:33:45;29.20;;;13.38;;
73296;SDS011;61524;50.938;11.396;2024-03-02T04:36:11;31.27;;;12.27;;
73296;SDS011;61524;50.938;11.396;2024-03-02T04:38:37;31.77;;;12.70;;
73296;SDS011;61524;50.938;11.396;2024-03-02T04:41:06;30.27;;;13.25;;
73296;SDS011;61524;50.938;11.396;2024-03-02T04:43:32;25.55;;;12.65;;
73296;SDS011;61524;50.938;11.396;2024-03-02T04:45:58;31.42;;;12.25;;
73296;SDS011;61524;50.938;11.396;2024-03-02T04:48:24;30.27;;;14.80;;
73296;SDS011;61524;50.938;11.396;2024-03-02T04:50:50;29.08;;;12.55;;
73296;SDS011;61524;50.938;11.396;2024-03-02T04:53:15;33.70;;;15.40;;
73296;SDS011;61524;50.938;11.396;2024-03-02T04:55:41;31.77;;;14.05;;
73296;SDS011;61524;50.938;11.396;2024-03-02T04:58:06;33.85;;;15.82;;
73296;SDS011;61524;50.938;11.396;2024-03-02T05:00:32;36.88;;;16.13;;
73296;SDS011;61524;50.938;11.396;2024-03-02T05:02:58;32.20;;;14.07;;
73296;SDS011;61524;50.938;11.396;2024-03-02T05:05:23;38.10;;;16.50;;
73296;SDS011;61524;50.938;11.396;2024-03-02T05:07:49;35.22;;;15.80;;
73296;SDS011;61524;50.938;11.396;2024-03-02T05:10:14;41.58;;;16.45;;
73296;SDS011;61524;50.938;11.396;2024-03-02T05:12:40;36.95;;;15.75;;
73296;SDS011;61524;50.938;11.396;2024-03-02T05:15:06;37.95;;;15.27;;
73296;SDS011;61524;50.938;11.396;2024-03-02T05:17:38;35.45;;;15.65;;
73296;SDS011;61524;50.938;11.396;2024-03-02T05:20:05;33.08;;;15.38;;
73296;SDS011;61524;50.938;11.396;2024-03-02T05:22:33;32.97;;;14.93;;
73296;SDS011;61524;50.938;11.396;2024-03-02T05:24:59;39.65;;;15.95;;
73296;SDS011;61524;50.938;11.396;2024-03-02T05:27:25;36.03;;;17.25;;
73296;SDS011;61524;50.938;11.396;2024-03-02T05:29:51;38.40;;;16.35;;
73296;SDS011;61524;50.938;11.396;2024-03-02T05:32:17;37.50;;;16.80;;
73296;SDS011;61524;50.938;11.396;2024-03-02T05:34:42;40.00;;;16.67;;
73296;SDS011;61524;50.938;11.396;2024-03-02T05:37:07;35.72;;;17.70;;
73296;SDS011;61524;50.938;11.396;2024-03-02T05:39:33;33.70;;;16.65;;
73296;SDS011;61524;50.938;11.396;2024-03-02T05:41:59;40.03;;;17.13;;
73296;SDS011;61524;50.938;11.396;2024-03-02T05:44:24;41.45;;;19.15;;
73296;SDS011;61524;50.938;11.396;2024-03-02T05:46:49;39.55;;;18.67;;
73296;SDS011;61524;50.938;11.396;2024-03-02T05:49:15;36.08;;;16.00;;
73296;SDS011;61524;50.938;11.396;2024-03-02T05:51:41;44.53;;;19.63;;
73296;SDS011;61524;50.938;11.396;2024-03-02T05:54:06;40.50;;;17.02;;
73296;SDS011;61524;50.938;11.396;2024-03-02T05:56:32;42.88;;;17.23;;
73296;SDS011;61524;50.938;11.396;2024-03-02T05:58:57;45.33;;;20.48;;
73296;SDS011;61524;50.938;11.396;2024-03-02T06:01:37;46.05;;;20.75;;
73296;SDS011;61524;50.938;11.396;2024-03-02T06:04:03;41.80;;;19.05;;
73296;SDS011;61524;50.938;11.396;2024-03-02T06:06:29;40.85;;;17.55;;
73296;SDS011;61524;50.938;11.396;2024-03-02T06:08:54;47.42;;;18.50;;
73296;SDS011;61524;50.938;11.396;2024-03-02T06:11:20;39.95;;;18.13;;
73296;SDS011;61524;50.938;11.396;2024-03-02T06:13:45;42.03;;;17.65;;
73296;SDS011;61524;50.938;11.396;2024-03-02T06:16:12;45.38;;;18.52;;
73296;SDS011;61524;50.938;11.396;2024-03-02T06:18:37;41.47;;;16.67;;
73296;SDS011;61524;50.938;11.396;2024-03-02T06:21:03;43.13;;;18.15;;
73296;SDS011;61524;50.938;11.396;2024-03-02T06:23:28;38.65;;;16.15;;
73296;SDS011;61524;50.938;11.396;2024-03-02T06:25:54;39.28;;;15.02;;
73296;SDS011;61524;50.938;11.396;2024-03-02T06:28:19;36.63;;;16.73;;
73296;SDS011;61524;50.938;11.396;2024-03-02T06:30:45;38.00;;;18.33;;
73296;SDS011;61524;50.938;11.396;2024-03-02T06:33:11;38.15;;;16.67;;
73296;SDS011;61524;50.938;11.396;2024-03-02T06:35:36;42.20;;;16.23;;
73296;SDS011;61524;50.938;11.396;2024-03-02T06:38:02;44.72;;;19.23;;
73296;SDS011;61524;50.938;11.396;2024-03-02T06:40:28;36.35;;;15.93;;
73296;SDS011;61524;50.938;11.396;2024-03-02T06:42:54;41.53;;;16.25;;
73296;SDS011;61524;50.938;11.396;2024-03-02T06:45:19;39.72;;;18.45;;
73296;SDS011;61524;50.938;11.396;2024-03-02T06:47:45;44.03;;;18.83;;
73296;SDS011;61524;50.938;11.396;2024-03-02T06:50:10;40.42;;;17.13;;
73296;SDS011;61524;50.938;11.396;2024-03-02T06:52:36;37.28;;;15.68;;
73296;SDS011;61524;50.938;11.396;2024-03-02T06:55:02;33.92;;;15.90;;
73296;SDS011;61524;50.938;11.396;2024-03-02T06:57:29;36.03;;;16.42;;
73296;SDS011;61524;50.938;11.396;2024-03-02T06:59:55;40.17;;;17.15;;
73296;SDS011;61524;50.938;11.396;2024-03-02T07:02:23;26.77;;;13.77;;
73296;SDS011;61524;50.938;11.396;2024-03-02T07:04:52;33.85;;;14.93;;
73296;SDS011;61524;50.938;11.396;2024-03-02T07:07:18;43.63;;;17.40;;
73296;SDS011;61524;50.938;11.396;2024-03-02T07:09:43;37.78;;;16.42;;
73296;SDS011;61524;50.938;11.396;2024-03-02T07:12:09;31.67;;;15.30;;
73296;SDS011;61524;50.938;11.396;2024-03-02T07:14:35;24.65;;;12.02;;
73296;SDS011;61524;50.938;11.396;2024-03-02T07:17:22;37.40;;;17.42;;
73296;SDS011;61524;50.938;11.396;2024-03-02T07:19:47;33.15;;;14.38;;
73296;SDS011;61524;50.938;11.396;2024-03-02T07:22:13;33.00;;;16.27;;
73296;SDS011;61524;50.938;11.396;2024-03-02T07:24:39;23.48;;;10.48;;
73296;SDS011;61524;50.938;11.396;2024-03-02T07:27:08;37.00;;;16.70;;
73296;SDS011;61524;50.938;11.396;2024-03-02T07:29:38;33.53;;;15.80;;
73296;SDS011;61524;50.938;11.396;2024-03-02T07:32:04;27.00;;;11.40;;
73296;SDS011;61524;50.938;11.396;2024-03-02T07:34:30;29.67;;;13.60;;
73296;SDS011;61524;50.938;11.396;2024-03-02T07:36:56;29.83;;;11.77;;
73296;SDS011;61524;50.938;11.396;2024-03-02T07:39:21;30.85;;;14.70;;
73296;SDS011;61524;50.938;11.396;2024-03-02T07:41:47;30.38;;;15.00;;
73296;SDS011;61524;50.938;11.396;2024-03-02T07:44:13;31.13;;;14.60;;
73296;SDS011;61524;50.938;11.396;2024-03-02T07:46:42;25.13;;;12.10;;
73296;SDS011;61524;50.938;11.396;2024-03-02T07:49:08;28.92;;;14.63;;
73296;SDS011;61524;50.938;11.396;2024-03-02T07:51:34;29.15;;;13.23;;
73296;SDS011;61524;50.938;11.396;2024-03-02T07:54:00;25.27;;;13.45;;
73296;SDS011;61524;50.938;11.396;2024-03-02T07:56:25;22.15;;;13.73;;
73296;SDS011;61524;50.938;11.396;2024-03-02T07:58:51;22.85;;;11.60;;
73296;SDS011;61524;50.938;11.396;2024-03-02T08:01:17;21.42;;;10.48;;
73296;SDS011;61524;50.938;11.396;2024-03-02T08:03:43;22.35;;;10.55;;
73296;SDS011;61524;50.938;11.396;2024-03-02T08:06:21;24.45;;;11.77;;
73296;SDS011;61524;50.938;11.396;2024-03-02T08:08:47;18.52;;;9.73;;
73296;SDS011;61524;50.938;11.396;2024-03-02T08:11:12;24.63;;;11.82;;
73296;SDS011;61524;50.938;11.396;2024-03-02T08:13:38;19.75;;;10.85;;
73296;SDS011;61524;50.938;11.396;2024-03-02T08:16:03;20.25;;;11.05;;
73296;SDS011;61524;50.938;11.396;2024-03-02T08:18:32;20.92;;;11.45;;
73296;SDS011;61524;50.938;11.396;2024-03-02T08:20:58;18.52;;;8.57;;
73296;SDS011;61524;50.938;11.396;2024-03-02T08:23:23;19.67;;;10.07;;
73296;SDS011;61524;50.938;11.396;2024-03-02T08:25:49;15.70;;;8.43;;
73296;SDS011;61524;50.938;11.396;2024-03-02T08:28:14;21.38;;;10.40;;
73296;SDS011;61524;50.938;11.396;2024-03-02T08:30:40;16.75;;;9.82;;
73296;SDS011;61524;50.938;11.396;2024-03-02T08:33:05;15.50;;;8.75;;
73296;SDS011;61524;50.938;11.396;2024-03-02T08:35:31;13.63;;;6.93;;
73296;SDS011;61524;50.938;11.396;2024-03-02T08:38:00;12.43;;;6.22;;
73296;SDS011;61524;50.938;11.396;2024-03-02T08:40:27;12.90;;;6.85;;
73296;SDS011;61524;50.938;11.396;2024-03-02T08:42:52;8.85;;;5.90;;
73296;SDS011;61524;50.938;11.396;2024-03-02T08:45:18;11.07;;;6.25;;
73296;SDS011;61524;50.938;11.396;2024-03-02T08:47:45;10.45;;;5.63;;
73296;SDS011;61524;50.938;11.396;2024-03-02T08:50:11;15.45;;;5.95;;
73296;SDS011;61524;50.938;11.396;2024-03-02T08:52:36;10.50;;;6.07;;
73296;SDS011;61524;50.938;11.396;2024-03-02T08:55:02;9.20;;;4.78;;
73296;SDS011;61524;50.938;11.396;2024-03-02T08:57:27;11.65;;;5.25;;
73296;SDS011;61524;50.938;11.396;2024-03-02T08:59:53;10.90;;;6.25;;
73296;SDS011;61524;50.938;11.396;2024-03-02T09:02:18;11.88;;;6.50;;
73296;SDS011;61524;50.938;11.396;2024-03-02T09:04:44;11.68;;;6.93;;
73296;SDS011;61524;50.938;11.396;2024-03-02T09:07:09;10.02;;;5.80;;
73296;SDS011;61524;50.938;11.396;2024-03-02T09:09:35;9.60;;;5.50;;
73296;SDS011;61524;50.938;11.396;2024-03-02T09:12:00;10.02;;;5.10;;
73296;SDS011;61524;50.938;11.396;2024-03-02T09:14:26;8.43;;;5.32;;
73296;SDS011;61524;50.938;11.396;2024-03-02T09:16:51;11.25;;;5.82;;
73296;SDS011;61524;50.938;11.396;2024-03-02T09:19:17;11.05;;;5.82;;
73296;SDS011;61524;50.938;11.396;2024-03-02T09:21:43;8.77;;;5.05;;
73296;SDS011;61524;50.938;11.396;2024-03-02T09:24:09;10.40;;;5.78;;
73296;SDS011;61524;50.938;11.396;2024-03-02T09:26:35;12.52;;;6.07;;
73296;SDS011;61524;50.938;11.396;2024-03-02T09:29:00;10.35;;;5.85;;
73296;SDS011;61524;50.938;11.396;2024-03-02T09:31:26;12.77;;;7.07;;
73296;SDS011;61524;50.938;11.396;2024-03-02T09:33:51;11.57;;;5.75;;
73296;SDS011;61524;50.938;11.396;2024-03-02T09:36:17;13.05;;;7.22;;
73296;SDS011;61524;50.938;11.396;2024-03-02T09:38:43;12.52;;;6.13;;
73296;SDS011;61524;50.938;11.396;2024-03-02T09:41:09;12.15;;;6.25;;
73296;SDS011;61524;50.938;11.396;2024-03-02T09:43:34;13.93;;;6.70;;
73296;SDS011;61524;50.938;11.396;2024-03-02T09:46:00;12.68;;;6.93;;
73296;SDS011;61524;50.938;11.396;2024-03-02T09:48:26;13.23;;;6.20;;
73296;SDS011;61524;50.938;11.396;2024-03-02T09:50:51;12.07;;;6.45;;
73296;SDS011;61524;50.938;11.396;2024-03-02T09:53:17;15.05;;;6.65;;
73296;SDS011;61524;50.938;11.396;2024-03-02T09:55:46;13.05;;;7.07;;
73296;SDS011;61524;50.938;11.396;2024-03-02T09:58:12;10.85;;;4.85;;
73296;SDS011;61524;50.938;11.396;2024-03-02T10:00:37;11.18;;;4.68;;
73296;SDS011;61524;50.938;11.396;2024-03-02T10:03:03;11.32;;;5.90;;
73296;SDS011;61524;50.938;11.396;2024-03-02T10:05:30;9.73;;;5.70;;
73296;SDS011;61524;50.938;11.396;2024-03-02T10:07:59;10.23;;;5.45;;
73296;SDS011;61524;50.938;11.396;2024-03-02T10:10:34;10.02;;;5.05;;
73296;SDS011;61524;50.938;11.396;2024-03-02T10:13:04;10.93;;;5.93;;
73296;SDS011;61524;50.938;11.396;2024-03-02T10:15:30;12.85;;;6.03;;
73296;SDS011;61524;50.938;11.396;2024-03-02T10:17:56;7.93;;;4.68;;
73296;SDS011;61524;50.938;11.396;2024-03-02T10:20:23;10.95;;;6.75;;
73296;SDS011;61524;50.938;11.396;2024-03-02T10:22:49;9.43;;;4.85;;
73296;SDS011;61524;50.938;11.396;2024-03-02T10:25:33;13.85;;;5.75;;
73296;SDS011;61524;50.938;11.396;2024-03-02T10:27:59;9.38;;;4.88;;
73296;SDS011;61524;50.938;11.396;2024-03-02T10:30:28;11.05;;;5.55;;
73296;SDS011;61524;50.938;11.396;2024-03-02T10:32:54;12.15;;;5.25;;
73296;SDS011;61524;50.938;11.396;2024-03-02T10:35:22;10.95;;;5.63;;
73296;SDS011;61524;50.938;11.396;2024-03-02T10:37:49;11.93;;;5.60;;
73296;SDS011;61524;50.938;11.396;2024-03-02T10:42:41;7.50;;;4.63;;
73296;SDS011;61524;50.938;11.396;2024-03-02T10:45:09;10.43;;;4.90;;
73296;SDS011;61524;50.938;11.396;2024-03-02T10:47:38;10.18;;;4.63;;
73296;SDS011;61524;50.938;11.396;2024-03-02T10:50:06;9.90;;;5.28;;
73296;SDS011;61524;50.938;11.396;2024-03-02T10:52:34;9.00;;;4.88;;
73296;SDS011;61524;50.938;11.396;2024-03-02T10:55:00;7.72;;;4.22;;
73296;SDS011;61524;50.938;11.396;2024-03-02T10:57:26;6.88;;;4.38;;
73296;SDS011;61524;50.938;11.396;2024-03-02T10:59:58;7.57;;;4.18;;
73296;SDS011;61524;50.938;11.396;2024-03-02T11:02:27;8.93;;;5.35;;
73296;SDS011;61524;50.938;11.396;2024-03-02T11:04:56;10.13;;;5.07;;
73296;SDS011;61524;50.938;11.396;2024-03-02T11:07:25;6.15;;;3.55;;
73296;SDS011;61524;50.938;11.396;2024-03-02T11:09:59;8.52;;;4.88;;
73296;SDS011;61524;50.938;11.396;2024-03-02T11:12:36;8.15;;;4.72;;
73296;SDS011;61524;50.938;11.396;2024-03-02T11:15:05;10.45;;;5.32;;
73296;SDS011;61524;50.938;11.396;2024-03-02T11:17:35;7.88;;;3.88;;
73296;SDS011;61524;50.938;11.396;2024-03-02T11:20:02;10.43;;;5.43;;
73296;SDS011;61524;50.938;11.396;2024-03-02T11:22:29;11.07;;;6.00;;
73296;SDS011;61524;50.938;11.396;2024-03-02T11:24:55;10.02;;;5.40;;
73296;SDS011;61524;50.938;11.396;2024-03-02T11:27:58;9.20;;;4.95;;
73296;SDS011;61524;50.938;11.396;2024-03-02T11:32:58;7.68;;;4.13;;
73296;SDS011;61524;50.938;11.396;2024-03-02T11:35:33;10.20;;;6.13;;
73296;SDS011;61524;50.938;11.396;2024-03-02T11:37:59;9.68;;;5.72;;
73296;SDS011;61524;50.938;11.396;2024-03-02T11:40:28;7.38;;;4.50;;
73296;SDS011;61524;50.938;11.396;2024-03-02T11:42:54;10.90;;;5.95;;
73296;SDS011;61524;50.938;11.396;2024-03-02T11:45:23;11.40;;;5.70;;
73296;SDS011;61524;50.938;11.396;2024-03-02T11:47:50;10.55;;;5.63;;
73296;SDS011;61524;50.938;11.396;2024-03-02T11:50:35;9.60;;;5.40;;
73296;SDS011;61524;50.938;11.396;2024-03-02T11:53:05;9.63;;;6.13;;
73296;SDS011;61524;50.938;11.396;2024-03-02T11:55:34;7.63;;;4.03;;
73296;SDS011;61524;50.938;11.396;2024-03-02T11:58:11;9.82;;;5.43;;
73296;SDS011;61524;50.938;11.396;2024-03-02T12:00:38;7.70;;;4.45;;
73296;SDS011;61524;50.938;11.396;2024-03-02T12:03:07;8.93;;;4.80;;
73296;SDS011;61524;50.938;11.396;2024-03-02T12:05:34;7.45;;;4.80;;
73296;SDS011;61524;50.938;11.396;2024-03-02T12:08:00;9.30;;;5.05;;
73296;SDS011;61524;50.938;11.396;2024-03-02T12:10:31;7.80;;;4.45;;
73296;SDS011;61524;50.938;11.396;2024-03-02T12:13:01;6.38;;;3.78;;
73296;SDS011;61524;50.938;11.396;2024-03-02T12:15:28;9.93;;;5.03;;
73296;SDS011;61524;50.938;11.396;2024-03-02T12:17:56;7.82;;;3.63;;
73296;SDS011;61524;50.938;11.396;2024-03-02T12:20:26;9.25;;;3.33;;
73296;SDS011;61524;50.938;11.396;2024-03-02T12:22:54;6.78;;;3.75;;
73296;SDS011;61524;50.938;11.396;2024-03-02T12:25:20;6.40;;;3.45;;
73296;SDS011;61524;50.938;11.396;2024-03-02T12:27:47;7.18;;;3.45;;
73296;SDS011;61524;50.938;11.396;2024-03-02T12:30:18;6.78;;;3.85;;
73296;SDS011;61524;50.938;11.396;2024-03-02T12:32:44;6.85;;;4.00;;
73296;SDS011;61524;50.938;11.396;2024-03-02T12:35:10;6.45;;;3.55;;
73296;SDS011;61524;50.938;11.396;2024-03-02T12:37:43;6.18;;;3.75;;
73296;SDS011;61524;50.938;11.396;2024-03-02T12:40:10;5.00;;;2.53;;
73296;SDS011;61524;50.938;11.396;2024-03-02T12:42:37;6.95;;;3.40;;
73296;SDS011;61524;50.938;11.396;2024-03-02T12:45:02;8.05;;;3.42;;
73296;SDS011;61524;50.938;11.396;2024-03-02T12:47:29;6.65;;;3.15;;
73296;SDS011;61524;50.938;11.396;2024-03-02T12:49:54;9.75;;;4.10;;
73296;SDS011;61524;50.938;11.396;2024-03-02T12:52:21;6.82;;;3.28;;
73296;SDS011;61524;50.938;11.396;2024-03-02T12:54:48;7.00;;;3.63;;
73296;SDS011;61524;50.938;11.396;2024-03-02T12:57:18;7.30;;;3.63;;
73296;SDS011;61524;50.938;11.396;2024-03-02T12:59:46;7.57;;;3.40;;
73296;SDS011;61524;50.938;11.396;2024-03-02T13:02:18;6.60;;;3.00;;
73296;SDS011;61524;50.938;11.396;2024-03-02T13:04:44;7.60;;;3.70;;
73296;SDS011;61524;50.938;11.396;2024-03-02T13:07:19;7.75;;;4.10;;
73296;SDS011;61524;50.938;11.396;2024-03-02T13:09:45;6.57;;;3.35;;
73296;SDS011;61524;50.938;11.396;2024-03-02T13:12:11;6.80;;;3.50;;
73296;SDS011;61524;50.938;11.396;2024-03-02T13:14:37;7.75;;;3.63;;
73296;SDS011;61524;50.938;11.396;2024-03-02T13:17:02;7.03;;;4.35;;
73296;SDS011;61524;50.938;11.396;2024-03-02T13:19:30;7.40;;;3.95;;
73296;SDS011;61524;50.938;11.396;2024-03-02T13:21:56;6.57;;;3.55;;
73296;SDS011;61524;50.938;11.396;2024-03-02T13:24:22;6.97;;;3.95;;
73296;SDS011;61524;50.938;11.396;2024-03-02T13:26:50;8.43;;;3.88;;
73296;SDS011;61524;50.938;11.396;2024-03-02T13:29:20;8.57;;;4.15;;
73296;SDS011;61524;50.938;11.396;2024-03-02T13:31:46;8.63;;;4.38;;
73296;SDS011;61524;50.938;11.396;2024-03-02T13:34:11;5.00;;;2.80;;
73296;SDS011;61524;50.938;11.396;2024-03-02T13:36:37;9.80;;;3.83;;
73296;SDS011;61524;50.938;11.396;2024-03-02T13:39:03;8.57;;;3.95;;
73296;SDS011;61524;50.938;11.396;2024-03-02T13:41:31;10.43;;;4.13;;
73296;SDS011;61524;50.938;11.396;2024-03-02T13:43:57;8.52;;;4.40;;
73296;SDS011;61524;50.938;11.396;2024-03-02T13:46:26;7.95;;;3.72;;
73296;SDS011;61524;50.938;11.396;2024-03-02T13:48:51;6.13;;;3.47;;
73296;SDS011;61524;50.938;11.396;2024-03-02T13:51:17;7.20;;;3.78;;
73296;SDS011;61524;50.938;11.396;2024-03-02T13:53:42;7.05;;;3.15;;
73296;SDS011;61524;50.938;11.396;2024-03-02T13:56:08;7.22;;;3.25;;
73296;SDS011;61524;50.938;11.396;2024-03-02T13:58:33;7.00;;;4.72;;
73296;SDS011;61524;50.938;11.396;2024-03-02T14:00:59;5.32;;;2.92;;
73296;SDS011;61524;50.938;11.396;2024-03-02T14:03:26;6.93;;;3.65;;
73296;SDS011;61524;50.938;11.396;2024-03-02T14:05:52;6.35;;;4.07;;
73296;SDS011;61524;50.938;11.396;2024-03-02T14:08:18;7.13;;;3.28;;
73296;SDS011;61524;50.938;11.396;2024-03-02T14:10:44;6.65;;;3.50;;
73296;SDS011;61524;50.938;11.396;2024-03-02T14:13:09;6.45;;;3.78;;
73296;SDS011;61524;50.938;11.396;2024-03-02T14:15:35;7.13;;;3.60;;
73296;SDS011;61524;50.938;11.396;2024-03-02T14:18:03;8.00;;;3.75;;
73296;SDS011;61524;50.938;11.396;2024-03-02T14:20:29;7.30;;;4.15;;
73296;SDS011;61524;50.938;11.396;2024-03-02T14:22:55;7.72;;;4.25;;
73296;SDS011;61524;50.938;11.396;2024-03-02T14:25:20;7.25;;;4.32;;
73296;SDS011;61524;50.938;11.396;2024-03-02T14:27:45;7.63;;;4.13;;
73296;SDS011;61524;50.938;11.396;2024-03-02T14:30:12;6.80;;;4.07;;
73296;SDS011;61524;50.938;11.396;2024-03-02T14:32:38;7.85;;;4.13;;